Terminal Aerodrome Forecast
Issued by NWS Hastings, NE

Home | Current Version | Previous Version | Text Only | Print | Product List | Glossary On
Versions: 1 2 3 4 5 6 7 8 9 10 11 12 13 14
000
FTUS45 KGID 172242 AAB
TAFEAR
TAF AMD
KEAR 172242Z 1723/1818 35005KT P6SM BKN020
     FM180200 VRB03KT P6SM SCT200
     FM181100 23007KT P6SM FEW250=

USA.gov is the U.S. government's official web portal to all federal, state and local government web resources and services.